sensor_id;sensor_type;location;lat;lon;timestamp;pressure;altitude;pressure_sealevel;temperature;humidity
21900;BME280;11114;50.658;12.704;2024-03-08T18:16:46;95630.72;;;2.43;66.82
21900;BME280;11114;50.658;12.704;2024-03-08T18:20:03;95616.56;;;2.38;66.90
21900;BME280;11114;50.658;12.704;2024-03-08T18:35:30;95617.81;;;2.24;67.62
21900;BME280;11114;50.658;12.704;2024-03-08T18:38:21;95624.09;;;2.22;67.40
21900;BME280;11114;50.658;12.704;2024-03-08T18:41:11;95612.13;;;2.21;67.72
21900;BME280;11114;50.658;12.704;2024-03-08T18:44:00;95607.09;;;2.19;67.93
21900;BME280;11114;50.658;12.704;2024-03-08T18:46:48;95605.16;;;2.21;68.05
21900;BME280;11114;50.658;12.704;2024-03-08T18:49:37;95604.19;;;2.22;68.02
21900;BME280;11114;50.658;12.704;2024-03-08T18:52:25;95610.47;;;2.20;68.01
21900;BME280;11114;50.658;12.704;2024-03-08T18:55:16;95615.81;;;2.18;68.10
21900;BME280;11114;50.658;12.704;2024-03-08T18:58:07;95609.94;;;2.17;68.31
21900;BME280;11114;50.658;12.704;2024-03-08T19:00:55;95602.19;;;2.17;68.33
21900;BME280;11114;50.658;12.704;2024-03-08T19:03:41;95603.56;;;2.11;68.67
21900;BME280;11114;50.658;12.704;2024-03-08T19:06:28;95614.06;;;2.10;68.70
21900;BME280;11114;50.658;12.704;2024-03-08T19:09:18;95597.06;;;2.07;68.78
21900;BME280;11114;50.658;12.704;2024-03-08T19:12:07;95614.34;;;2.07;68.53
21900;BME280;11114;50.658;12.704;2024-03-08T19:14:54;95599.09;;;2.04;68.74
21900;BME280;11114;50.658;12.704;2024-03-08T19:17:44;95601.97;;;2.01;68.65
21900;BME280;11114;50.658;12.704;2024-03-08T19:20:32;95599.50;;;1.99;68.96
21900;BME280;11114;50.658;12.704;2024-03-08T19:23:22;95598.69;;;1.99;69.08
21900;BME280;11114;50.658;12.704;2024-03-08T19:26:09;95603.88;;;1.99;68.69
21900;BME280;11114;50.658;12.704;2024-03-08T19:28:58;95592.16;;;1.95;68.89
21900;BME280;11114;50.658;12.704;2024-03-08T19:31:48;95601.97;;;1.91;68.81
21900;BME280;11114;50.658;12.704;2024-03-08T19:34:36;95606.78;;;1.86;69.18
21900;BME280;11114;50.658;12.704;2024-03-08T19:37:25;95600.13;;;1.84;68.84
21900;BME280;11114;50.658;12.704;2024-03-08T19:40:17;95597.13;;;1.79;68.70
21900;BME280;11114;50.658;12.704;2024-03-08T19:43:07;95588.66;;;1.77;69.06
21900;BME280;11114;50.658;12.704;2024-03-08T19:46:06;95589.38;;;1.69;68.94
21900;BME280;11114;50.658;12.704;2024-03-08T19:54:22;95583.94;;;1.63;69.51
21900;BME280;11114;50.658;12.704;2024-03-08T19:58:24;95579.47;;;1.55;69.41
21900;BME280;11114;50.658;12.704;2024-03-08T20:01:18;95574.84;;;1.49;69.29
21900;BME280;11114;50.658;12.704;2024-03-08T20:04:40;95581.13;;;1.47;69.44
21900;BME280;11114;50.658;12.704;2024-03-08T20:08:02;95574.56;;;1.43;69.69
21900;BME280;11114;50.658;12.704;2024-03-08T20:11:03;95574.34;;;1.37;69.73
21900;BME280;11114;50.658;12.704;2024-03-08T20:14:05;95567.25;;;1.29;69.81
21900;BME280;11114;50.658;12.704;2024-03-08T20:16:52;95564.00;;;1.27;69.89
21900;BME280;11114;50.658;12.704;2024-03-08T20:19:53;95574.59;;;1.24;69.84
21900;BME280;11114;50.658;12.704;2024-03-08T20:23:10;95562.22;;;1.18;69.87
21900;BME280;11114;50.658;12.704;2024-03-08T20:26:29;95556.91;;;1.10;69.74
21900;BME280;11114;50.658;12.704;2024-03-08T20:33:11;95546.72;;;0.99;69.92
21900;BME280;11114;50.658;12.704;2024-03-08T20:36:11;95535.72;;;0.97;70.02
21900;BME280;11114;50.658;12.704;2024-03-08T20:38:57;95533.41;;;0.94;70.10
21900;BME280;11114;50.658;12.704;2024-03-08T20:41:44;95539.66;;;0.92;70.45
21900;BME280;11114;50.658;12.704;2024-03-08T20:44:33;95538.97;;;0.90;70.33
21900;BME280;11114;50.658;12.704;2024-03-08T20:47:21;95528.91;;;0.87;70.65
21900;BME280;11114;50.658;12.704;2024-03-08T20:50:11;95526.47;;;0.85;70.69
21900;BME280;11114;50.658;12.704;2024-03-08T20:52:59;95521.31;;;0.85;70.75
21900;BME280;11114;50.658;12.704;2024-03-08T20:55:46;95525.94;;;0.82;71.01
21900;BME280;11114;50.658;12.704;2024-03-08T20:58:39;95518.44;;;0.79;70.94
21900;BME280;11114;50.658;12.704;2024-03-08T21:01:28;95511.78;;;0.76;70.68
21900;BME280;11114;50.658;12.704;2024-03-08T21:04:18;95514.63;;;0.73;70.89
21900;BME280;11114;50.658;12.704;2024-03-08T21:07:05;95513.00;;;0.72;70.56
21900;BME280;11114;50.658;12.704;2024-03-08T21:09:53;95510.56;;;0.71;70.61
21900;BME280;11114;50.658;12.704;2024-03-08T21:12:40;95503.06;;;0.68;70.89
21900;BME280;11114;50.658;12.704;2024-03-08T21:15:31;95500.63;;;0.66;70.61
21900;BME280;11114;50.658;12.704;2024-03-08T21:18:17;95496.41;;;0.65;70.68
21900;BME280;11114;50.658;12.704;2024-03-08T21:21:04;95497.34;;;0.64;70.85
21900;BME280;11114;50.658;12.704;2024-03-08T21:23:53;95507.28;;;0.59;71.16
21900;BME280;11114;50.658;12.704;2024-03-08T21:26:40;95494.63;;;0.56;70.96
21900;BME280;11114;50.658;12.704;2024-03-08T21:29:26;95498.47;;;0.53;71.33
21900;BME280;11114;50.658;12.704;2024-03-08T21:32:16;95488.13;;;0.53;71.03
21900;BME280;11114;50.658;12.704;2024-03-08T21:35:02;95502.69;;;0.54;71.01
21900;BME280;11114;50.658;12.704;2024-03-08T21:37:50;95497.78;;;0.51;71.04
21900;BME280;11114;50.658;12.704;2024-03-08T21:40:36;95498.72;;;0.50;71.18
21900;BME280;11114;50.658;12.704;2024-03-08T21:43:46;95497.34;;;0.46;71.31
21900;BME280;11114;50.658;12.704;2024-03-08T21:46:33;95495.44;;;0.48;71.21
21900;BME280;11114;50.658;12.704;2024-03-08T21:49:20;95501.44;;;0.48;70.92
